ADDS TAF Data INFO
 
 

IDs: Format: Raw Decoded Include METARs

Data at: 1122 UTC 22 Jul 2014

Region: TOP
KATL 220957Z 2210/2312 10004KT P6SM BKN009
  TEMPO 2210/2214 SCT009 BKN025
  FM221400 08006KT 6SM BR SCT007 BKN012
  FM221600 08006KT P6SM VCSH SCT020 BKN035
  TEMPO 2219/2223 5SM -TSRA BR BKN020CB
  FM230000 10005KT P6SM BKN035
  FM230900 13003KT P6SM SCT006 SCT090


KBOS 220826Z 2208/2312 21006KT P6SM SCT100
  FM221600 15008KT P6SM SCT250
  FM222000 17007KT P6SM SCT250
  FM230000 24005KT P6SM FEW250


KBWI 220841Z 2209/2312 00000KT P6SM BKN009
  FM221000 00000KT P6SM OVC015
  FM221400 VRB03KT P6SM OVC050
  FM222200 16007KT P6SM SCT050
  FM230600 00000KT P6SM BKN200


KCLE 220916Z 2209/2312 16004KT P6SM SKC
  FM221500 21008KT P6SM SCT045
  FM221900 02006KT P6SM SCT050
  FM230000 21006KT P6SM BKN250
  FM231000 23008KT P6SM VCSH BKN050 OVC100


KCLT 220904Z 2209/2306 08005KT P6SM OVC007
  TEMPO 2213/2214 6SM -SHRA BR SCT007 OVC012
  FM221500 07006KT P6SM OVC012
  FM221600 06006KT P6SM OVC021
  FM221900 07006KT P6SM BKN040
  PROB30 2219/2224 4SM TSRA BKN030CB


KCVG 221050Z 2211/2312 07003KT P6SM FEW060
  TEMPO 2211/2213 5SM BR
  FM221400 20006KT P6SM SCT040
  FM230000 VRB03KT P6SM SCT250
  FM230700 23005KT P6SM SCT100 BKN200


KDCA 220841Z 2209/2306 19004KT P6SM FEW012 SCT150 BKN250
  FM221000 00000KT P6SM OVC020
  FM221400 VRB03KT P6SM BKN050
  FM222200 17008KT P6SM SCT050
  FM230300 19008KT P6SM BKN050


KDEN 221112Z 2211/2312 VRB05KT P6SM FEW200
  FM221500 35008KT P6SM FEW220
  FM221700 02009KT P6SM FEW220
  FM222100 07011KT P6SM SCT100 BKN220
  FM230200 14009KT P6SM FEW100 BKN220


KDFW 220855Z 2209/2312 13008KT P6SM BKN250

KDTW 220822Z 2208/2312 00000KT 6SM BR SKC
  TEMPO 2209/2212 4SM BR
  FM221400 18007KT P6SM SKC
  FM221700 21010KT P6SM FEW050 SCT250
  FM230100 23013KT P6SM SCT100 BKN250
  PROB30 2306/2309 3SM -TSRA OVC040CB


KEWR 220830Z 2209/2312 22005KT P6SM FEW250
  FM221100 25005KT P6SM FEW050 FEW250
  FM221700 21008KT P6SM FEW050 FEW250
  FM222000 17011KT P6SM FEW250
  FM230100 22007KT P6SM FEW250


KFLL 220522Z 2206/2306 VRB03KT P6SM FEW020 BKN250
  FM221000 16005KT P6SM VCSH SCT020 BKN040
  FM221400 14008KT P6SM VCTS SCT030CB BKN050
  FM222300 16003KT P6SM VCSH FEW020 SCT080 BKN120


KIAD 221032Z 2211/2312 17004KT P6SM OVC009
  FM221300 17004KT P6SM OVC015
  FM221600 19005KT P6SM BKN050
  FM230900 VRB03KT P6SM BKN030


KIAH 220912Z 2209/2312 00000KT P6SM FEW250
  FM221100 00000KT 6SM BR SCT015
  FM221500 22004KT P6SM SCT030
  FM221800 16005KT P6SM VCTS SCT040CB SCT250
  FM222200 13005KT P6SM SCT250
  FM230900 VRB03KT P6SM SCT015


KJFK 220830Z 2209/2312 23005KT P6SM FEW250
  FM221300 24006KT P6SM FEW050 FEW250
  FM221600 19009KT P6SM FEW050 FEW250
  FM221800 18012KT P6SM FEW250
  FM222100 19016KT P6SM FEW250
  FM230100 21007KT P6SM FEW050


KLAS 220851Z 2209/2306 20008KT P6SM SKC
  FM221500 VRB05KT P6SM SKC
  FM221800 08007KT P6SM SKC
  FM230300 21010KT P6SM SCT250


KLAX 220850Z 2209/2312 VRB03KT P6SM FEW015
  FM221200 VRB03KT P6SM BKN012
  FM221700 26012KT P6SM SCT150 SCT250
  FM230400 26008KT P6SM SCT250
  FM231100 VRB03KT P6SM BKN012


KLGA 220830Z 2209/2306 23005KT P6SM FEW250
  FM221700 20008KT P6SM FEW050 FEW250
  FM221900 18012KT P6SM FEW050 FEW250
  FM222100 18013G18KT P6SM FEW250
  FM230200 20008KT P6SM FEW250


KMCO 220905Z 2209/2306 10003KT P6SM FEW010 SCT250
  FM221500 19004KT P6SM SCT035 SCT250
  FM222000 10007KT P6SM VCTS SCT045CB SCT080 BKN250
  TEMPO 2220/2222 2SM TSRA BKN025CB
  FM230100 14005KT P6SM FEW020 SCT100 OVC250


KMDW 220901Z 2209/2306 19007KT P6SM FEW250
  FM221400 20012G18KT P6SM BKN200
  FM221800 22016G23KT P6SM FEW045
  FM230000 24014G20KT P6SM VCTS BKN050CB
  PROB30 2302/2305 3SM TSRA OVC040CB
  FM230500 31010KT P6SM BKN040


KMEM 220900Z 2209/2306 03002KT P6SM FEW002 SCT250
  FM221100 05005KT P6SM FEW030 SCT250
  FM230100 10003KT P6SM SCT250


KMIA 220522Z 2206/2306 VRB02KT P6SM FEW020 BKN250
  FM221000 17005KT P6SM VCSH SCT020 BKN040
  FM221500 14008KT P6SM VCTS SCT030CB BKN050
  FM222300 17003KT P6SM VCSH FEW020 SCT080 BKN120


KMSP 220900Z 2209/2312 23006KT P6SM FEW020 BKN040
  FM221100 25007KT P6SM SCT020 BKN100
  TEMPO 2211/2213 BKN020
  FM221300 29013KT P6SM SCT030
  FM221600 31016G24KT P6SM SCT040 SCT250
  FM230000 34007KT P6SM FEW250


KORD 220901Z 2209/2312 19007KT P6SM FEW250
  FM221400 20012G18KT P6SM BKN200
  FM221800 22016G23KT P6SM FEW045
  FM230000 24014G20KT P6SM VCTS BKN050CB
  PROB30 2302/2305 3SM TSRA OVC040CB
  FM230500 31010KT P6SM BKN040
  FM230700 03012KT P6SM BKN030


KPDX 220859Z 2209/2306 30005KT P6SM BKN070 BKN100

KPHL 220952Z 2210/2312 19003KT P6SM FEW020
  FM221300 21006KT P6SM SKC
  FM221600 20008KT P6SM SCT050
  FM222200 20008KT P6SM FEW250
  FM230900 22005KT 5SM BR FEW250


KPHX 220809Z 2208/2306 24003KT P6SM SKC
  FM221000 11004KT P6SM FEW250
  FM222200 25005KT P6SM SCT150 BKN250


KPIT 220856Z 2209/2312 00000KT P6SM SKC
  FM221100 00000KT 4SM BR SKC
  FM221400 20004KT P6SM SCT050


KSAN 221007Z 2210/2312 VRB04KT P6SM BKN014
  FM221700 30006KT P6SM SCT018
  FM221900 31011KT P6SM FEW020
  FM230500 VRB05KT P6SM BKN012


KSEA 220909Z 2209/2312 VRB03KT P6SM SCT120 BKN200
  FM222100 33006KT P6SM BKN120 BKN200
  FM230600 VRB03KT P6SM BKN045 OVC070


KSFO 221033Z 2211/2312 26006KT P6SM VCSH FEW008 SCT015 BKN180
  FM221130 27007KT P6SM -SHRA FEW008 BKN015 BKN180
  FM221700 27016KT P6SM FEW020 SCT180
  FM230300 26009KT P6SM FEW020
  FM230900 25010KT P6SM BKN015


KSLC 220854Z 2209/2312 14006KT P6SM FEW140
  FM222000 34008KT P6SM SCT140
  FM230400 15008KT P6SM FEW100 SCT140


KSTL 220852Z 2209/2312 21005KT P6SM SKC
  FM221500 21008KT P6SM FEW045 SCT250
  FM230600 32010G25KT 4SM TSRA BR BKN050CB OVC150
  FM230800 34008KT 5SM -SHRA BKN040 OVC150
  FM231000 35007KT P6SM BKN250


KTPA 220855Z 2209/2306 VRB04KT P6SM FEW020 BKN250
  FM221500 24005KT P6SM SCT035 BKN250
  FM221700 27007KT P6SM VCTS SCT040CB SCT100 BKN250
  FM230100 VRB03KT P6SM SCT035 BKN150


Page loaded:  11:22 UTC  |   04:22 AM Pacific  |   05:22 AM Mountain  |   06:22 AM Central  |   07:22 AM Eastern

 

ADVISORIES

FORECASTS

FORECASTS

OBSERVATIONS

USER TOOLS

ABOUT US